sensor_id;sensor_type;location;lat;lon;timestamp;P1;durP1;ratioP1;P2;durP2;ratioP2
11222;SDS011;5668;52.012;8.724;2022-10-20T00:01:14;6.63;;;6.03;;
11222;SDS011;5668;52.012;8.724;2022-10-20T00:03:43;7.00;;;6.40;;
11222;SDS011;5668;52.012;8.724;2022-10-20T00:06:12;7.30;;;6.50;;
11222;SDS011;5668;52.012;8.724;2022-10-20T00:08:41;7.63;;;6.87;;
11222;SDS011;5668;52.012;8.724;2022-10-20T00:11:11;8.13;;;6.80;;
11222;SDS011;5668;52.012;8.724;2022-10-20T00:13:40;7.13;;;6.43;;
11222;SDS011;5668;52.012;8.724;2022-10-20T00:16:08;7.23;;;6.33;;
11222;SDS011;5668;52.012;8.724;2022-10-20T00:18:36;7.30;;;6.70;;
11222;SDS011;5668;52.012;8.724;2022-10-20T00:21:04;8.30;;;6.40;;
11222;SDS011;5668;52.012;8.724;2022-10-20T00:23:32;7.80;;;7.10;;
11222;SDS011;5668;52.012;8.724;2022-10-20T00:26:00;7.40;;;6.70;;
11222;SDS011;5668;52.012;8.724;2022-10-20T00:28:30;8.07;;;7.03;;
11222;SDS011;5668;52.012;8.724;2022-10-20T00:30:57;9.30;;;6.97;;
11222;SDS011;5668;52.012;8.724;2022-10-20T00:33:25;8.33;;;7.07;;
11222;SDS011;5668;52.012;8.724;2022-10-20T00:35:52;7.47;;;6.77;;
11222;SDS011;5668;52.012;8.724;2022-10-20T00:38:19;7.57;;;6.97;;
11222;SDS011;5668;52.012;8.724;2022-10-20T00:40:46;8.57;;;7.77;;
11222;SDS011;5668;52.012;8.724;2022-10-20T00:43:14;7.77;;;6.97;;
11222;SDS011;5668;52.012;8.724;2022-10-20T00:45:43;7.63;;;6.93;;
11222;SDS011;5668;52.012;8.724;2022-10-20T00:48:16;8.63;;;7.03;;
11222;SDS011;5668;52.012;8.724;2022-10-20T00:50:48;8.50;;;7.50;;
11222;SDS011;5668;52.012;8.724;2022-10-20T00:53:17;7.60;;;6.90;;
11222;SDS011;5668;52.012;8.724;2022-10-20T00:55:46;8.20;;;7.33;;
11222;SDS011;5668;52.012;8.724;2022-10-20T00:58:16;9.80;;;7.63;;
11222;SDS011;5668;52.012;8.724;2022-10-20T01:00:46;9.27;;;7.20;;
11222;SDS011;5668;52.012;8.724;2022-10-20T01:03:17;8.03;;;7.23;;
11222;SDS011;5668;52.012;8.724;2022-10-20T01:05:48;7.93;;;7.23;;
11222;SDS011;5668;52.012;8.724;2022-10-20T01:08:16;7.93;;;7.10;;
11222;SDS011;5668;52.012;8.724;2022-10-20T01:10:45;8.10;;;7.40;;
11222;SDS011;5668;52.012;8.724;2022-10-20T01:13:19;9.20;;;7.77;;
11222;SDS011;5668;52.012;8.724;2022-10-20T01:15:58;8.37;;;7.67;;
11222;SDS011;5668;52.012;8.724;2022-10-20T01:18:32;8.50;;;7.70;;
11222;SDS011;5668;52.012;8.724;2022-10-20T01:24:19;8.63;;;7.93;;
11222;SDS011;5668;52.012;8.724;2022-10-20T01:27:26;9.20;;;8.30;;
11222;SDS011;5668;52.012;8.724;2022-10-20T01:30:00;8.07;;;7.37;;
11222;SDS011;5668;52.012;8.724;2022-10-20T01:32:35;9.73;;;7.73;;
11222;SDS011;5668;52.012;8.724;2022-10-20T01:35:20;9.33;;;8.00;;
11222;SDS011;5668;52.012;8.724;2022-10-20T01:37:54;8.23;;;7.53;;
11222;SDS011;5668;52.012;8.724;2022-10-20T01:40:30;11.20;;;7.60;;
11222;SDS011;5668;52.012;8.724;2022-10-20T01:43:04;8.63;;;7.83;;
11222;SDS011;5668;52.012;8.724;2022-10-20T01:45:37;11.63;;;7.77;;
11222;SDS011;5668;52.012;8.724;2022-10-20T01:48:08;8.37;;;7.57;;
11222;SDS011;5668;52.012;8.724;2022-10-20T01:50:38;8.00;;;7.37;;
11222;SDS011;5668;52.012;8.724;2022-10-20T01:53:06;8.00;;;7.13;;
11222;SDS011;5668;52.012;8.724;2022-10-20T01:55:33;8.37;;;7.67;;
11222;SDS011;5668;52.012;8.724;2022-10-20T01:58:15;8.50;;;7.80;;
11222;SDS011;5668;52.012;8.724;2022-10-20T02:01:02;8.50;;;7.80;;
11222;SDS011;5668;52.012;8.724;2022-10-20T02:03:36;8.83;;;8.00;;
11222;SDS011;5668;52.012;8.724;2022-10-20T02:06:16;12.40;;;8.70;;
11222;SDS011;5668;52.012;8.724;2022-10-20T02:08:51;8.57;;;7.77;;
11222;SDS011;5668;52.012;8.724;2022-10-20T02:11:23;8.43;;;7.70;;
11222;SDS011;5668;52.012;8.724;2022-10-20T02:13:56;8.53;;;7.67;;
11222;SDS011;5668;52.012;8.724;2022-10-20T02:16:26;10.67;;;7.90;;
11222;SDS011;5668;52.012;8.724;2022-10-20T02:18:56;9.03;;;8.10;;
11222;SDS011;5668;52.012;8.724;2022-10-20T02:21:24;9.43;;;8.40;;
11222;SDS011;5668;52.012;8.724;2022-10-20T02:23:52;10.37;;;7.77;;
11222;SDS011;5668;52.012;8.724;2022-10-20T02:26:24;9.17;;;8.27;;
11222;SDS011;5668;52.012;8.724;2022-10-20T02:28:52;8.77;;;7.97;;
11222;SDS011;5668;52.012;8.724;2022-10-20T02:31:24;8.60;;;7.83;;
11222;SDS011;5668;52.012;8.724;2022-10-20T02:33:51;11.10;;;8.33;;
11222;SDS011;5668;52.012;8.724;2022-10-20T02:36:24;10.73;;;8.30;;
11222;SDS011;5668;52.012;8.724;2022-10-20T02:38:52;12.03;;;8.17;;
11222;SDS011;5668;52.012;8.724;2022-10-20T02:41:19;8.50;;;7.70;;
11222;SDS011;5668;52.012;8.724;2022-10-20T02:43:46;10.30;;;8.33;;
11222;SDS011;5668;52.012;8.724;2022-10-20T02:46:13;8.60;;;7.80;;
11222;SDS011;5668;52.012;8.724;2022-10-20T02:48:42;8.50;;;7.60;;
11222;SDS011;5668;52.012;8.724;2022-10-20T02:51:09;8.60;;;7.80;;
11222;SDS011;5668;52.012;8.724;2022-10-20T02:53:37;8.43;;;7.63;;
11222;SDS011;5668;52.012;8.724;2022-10-20T02:56:04;8.40;;;7.60;;
11222;SDS011;5668;52.012;8.724;2022-10-20T02:58:32;8.43;;;7.57;;
11222;SDS011;5668;52.012;8.724;2022-10-20T03:00:59;8.20;;;7.50;;
11222;SDS011;5668;52.012;8.724;2022-10-20T03:03:26;8.73;;;7.90;;
11222;SDS011;5668;52.012;8.724;2022-10-20T03:05:55;10.80;;;8.10;;
11222;SDS011;5668;52.012;8.724;2022-10-20T03:08:22;8.60;;;7.90;;
11222;SDS011;5668;52.012;8.724;2022-10-20T03:10:49;8.93;;;7.10;;
11222;SDS011;5668;52.012;8.724;2022-10-20T03:13:16;8.53;;;7.67;;
11222;SDS011;5668;52.012;8.724;2022-10-20T03:15:43;8.63;;;7.67;;
11222;SDS011;5668;52.012;8.724;2022-10-20T03:18:10;9.90;;;7.50;;
11222;SDS011;5668;52.012;8.724;2022-10-20T03:20:37;8.37;;;7.43;;
11222;SDS011;5668;52.012;8.724;2022-10-20T03:23:06;8.97;;;7.53;;
11222;SDS011;5668;52.012;8.724;2022-10-20T03:25:33;7.70;;;6.47;;
11222;SDS011;5668;52.012;8.724;2022-10-20T03:28:00;8.70;;;7.03;;
11222;SDS011;5668;52.012;8.724;2022-10-20T03:30:27;8.50;;;7.80;;
11222;SDS011;5668;52.012;8.724;2022-10-20T03:32:54;8.77;;;7.87;;
11222;SDS011;5668;52.012;8.724;2022-10-20T03:35:21;8.47;;;7.50;;
11222;SDS011;5668;52.012;8.724;2022-10-20T03:37:48;9.00;;;7.77;;
11222;SDS011;5668;52.012;8.724;2022-10-20T03:40:17;9.00;;;7.60;;
11222;SDS011;5668;52.012;8.724;2022-10-20T03:42:46;9.27;;;7.83;;
11222;SDS011;5668;52.012;8.724;2022-10-20T03:45:13;10.03;;;7.47;;
11222;SDS011;5668;52.012;8.724;2022-10-20T03:47:40;10.53;;;7.67;;
11222;SDS011;5668;52.012;8.724;2022-10-20T03:50:08;9.77;;;8.13;;
11222;SDS011;5668;52.012;8.724;2022-10-20T03:52:37;8.00;;;7.20;;
11222;SDS011;5668;52.012;8.724;2022-10-20T03:55:04;8.13;;;7.33;;
11222;SDS011;5668;52.012;8.724;2022-10-20T03:57:33;8.60;;;7.80;;
11222;SDS011;5668;52.012;8.724;2022-10-20T04:00:00;9.83;;;7.67;;
11222;SDS011;5668;52.012;8.724;2022-10-20T04:02:31;8.73;;;7.30;;
11222;SDS011;5668;52.012;8.724;2022-10-20T04:04:59;8.27;;;7.20;;
11222;SDS011;5668;52.012;8.724;2022-10-20T04:07:26;7.80;;;7.00;;
11222;SDS011;5668;52.012;8.724;2022-10-20T04:09:53;7.13;;;6.43;;
11222;SDS011;5668;52.012;8.724;2022-10-20T04:12:21;8.57;;;6.53;;
11222;SDS011;5668;52.012;8.724;2022-10-20T04:14:50;7.37;;;6.67;;
11222;SDS011;5668;52.012;8.724;2022-10-20T04:17:17;7.77;;;6.67;;
11222;SDS011;5668;52.012;8.724;2022-10-20T04:19:45;7.53;;;6.83;;
11222;SDS011;5668;52.012;8.724;2022-10-20T04:22:12;7.03;;;6.43;;
11222;SDS011;5668;52.012;8.724;2022-10-20T04:24:39;7.57;;;6.40;;
11222;SDS011;5668;52.012;8.724;2022-10-20T04:27:06;7.33;;;6.57;;
11222;SDS011;5668;52.012;8.724;2022-10-20T04:29:34;8.20;;;6.23;;
11222;SDS011;5668;52.012;8.724;2022-10-20T04:32:02;8.57;;;6.80;;
11222;SDS011;5668;52.012;8.724;2022-10-20T04:34:30;7.60;;;6.97;;
11222;SDS011;5668;52.012;8.724;2022-10-20T04:36:57;7.73;;;6.20;;
11222;SDS011;5668;52.012;8.724;2022-10-20T04:39:24;6.20;;;5.60;;
11222;SDS011;5668;52.012;8.724;2022-10-20T04:41:51;6.87;;;6.17;;
11222;SDS011;5668;52.012;8.724;2022-10-20T04:44:19;6.60;;;5.97;;
11222;SDS011;5668;52.012;8.724;2022-10-20T04:46:46;6.73;;;6.03;;
11222;SDS011;5668;52.012;8.724;2022-10-20T04:49:14;8.83;;;6.10;;
11222;SDS011;5668;52.012;8.724;2022-10-20T04:51:41;7.27;;;6.23;;
11222;SDS011;5668;52.012;8.724;2022-10-20T04:54:08;11.10;;;6.47;;
11222;SDS011;5668;52.012;8.724;2022-10-20T04:56:36;7.43;;;6.73;;
11222;SDS011;5668;52.012;8.724;2022-10-20T04:59:03;7.40;;;6.70;;
11222;SDS011;5668;52.012;8.724;2022-10-20T05:01:30;8.40;;;6.13;;
11222;SDS011;5668;52.012;8.724;2022-10-20T05:03:58;7.57;;;6.50;;
11222;SDS011;5668;52.012;8.724;2022-10-20T05:06:27;7.70;;;6.90;;
11222;SDS011;5668;52.012;8.724;2022-10-20T05:08:57;8.23;;;6.80;;
11222;SDS011;5668;52.012;8.724;2022-10-20T05:11:26;8.30;;;6.83;;
11222;SDS011;5668;52.012;8.724;2022-10-20T05:13:54;8.40;;;6.97;;
11222;SDS011;5668;52.012;8.724;2022-10-20T05:16:21;9.27;;;7.10;;
11222;SDS011;5668;52.012;8.724;2022-10-20T05:18:49;7.57;;;6.90;;
11222;SDS011;5668;52.012;8.724;2022-10-20T05:21:18;7.53;;;6.83;;
11222;SDS011;5668;52.012;8.724;2022-10-20T05:23:48;7.73;;;6.93;;
11222;SDS011;5668;52.012;8.724;2022-10-20T05:26:20;7.53;;;6.83;;
11222;SDS011;5668;52.012;8.724;2022-10-20T05:28:48;8.03;;;6.67;;
11222;SDS011;5668;52.012;8.724;2022-10-20T05:31:17;7.40;;;6.70;;
11222;SDS011;5668;52.012;8.724;2022-10-20T05:33:46;8.83;;;7.07;;
11222;SDS011;5668;52.012;8.724;2022-10-20T05:36:15;7.37;;;6.67;;
11222;SDS011;5668;52.012;8.724;2022-10-20T05:38:44;8.50;;;6.70;;
11222;SDS011;5668;52.012;8.724;2022-10-20T05:41:13;8.20;;;6.83;;
11222;SDS011;5668;52.012;8.724;2022-10-20T05:43:46;7.77;;;7.07;;
11222;SDS011;5668;52.012;8.724;2022-10-20T05:46:13;8.13;;;7.10;;
11222;SDS011;5668;52.012;8.724;2022-10-20T05:48:41;7.83;;;7.13;;
11222;SDS011;5668;52.012;8.724;2022-10-20T05:51:08;7.97;;;7.13;;
11222;SDS011;5668;52.012;8.724;2022-10-20T05:53:37;9.67;;;7.47;;
11222;SDS011;5668;52.012;8.724;2022-10-20T05:56:05;9.17;;;7.70;;
11222;SDS011;5668;52.012;8.724;2022-10-20T05:58:35;9.60;;;7.73;;
11222;SDS011;5668;52.012;8.724;2022-10-20T06:01:03;10.43;;;7.40;;
11222;SDS011;5668;52.012;8.724;2022-10-20T06:03:32;9.33;;;7.57;;
11222;SDS011;5668;52.012;8.724;2022-10-20T06:05:59;8.23;;;7.43;;
11222;SDS011;5668;52.012;8.724;2022-10-20T06:08:28;9.47;;;7.70;;
11222;SDS011;5668;52.012;8.724;2022-10-20T06:10:56;7.80;;;7.00;;
11222;SDS011;5668;52.012;8.724;2022-10-20T06:13:26;10.23;;;7.37;;
11222;SDS011;5668;52.012;8.724;2022-10-20T06:15:55;8.37;;;7.20;;
11222;SDS011;5668;52.012;8.724;2022-10-20T06:18:27;7.90;;;7.10;;
11222;SDS011;5668;52.012;8.724;2022-10-20T06:20:58;9.77;;;7.33;;
11222;SDS011;5668;52.012;8.724;2022-10-20T06:23:26;7.97;;;6.50;;
11222;SDS011;5668;52.012;8.724;2022-10-20T06:25:53;12.53;;;7.03;;
11222;SDS011;5668;52.012;8.724;2022-10-20T06:28:27;9.20;;;7.50;;
11222;SDS011;5668;52.012;8.724;2022-10-20T06:30:57;11.97;;;6.97;;
11222;SDS011;5668;52.012;8.724;2022-10-20T06:33:25;8.17;;;7.43;;
11222;SDS011;5668;52.012;8.724;2022-10-20T06:35:57;7.83;;;7.00;;
11222;SDS011;5668;52.012;8.724;2022-10-20T06:38:25;7.70;;;7.00;;
11222;SDS011;5668;52.012;8.724;2022-10-20T06:40:52;8.03;;;7.23;;
11222;SDS011;5668;52.012;8.724;2022-10-20T06:43:20;9.30;;;7.50;;
11222;SDS011;5668;52.012;8.724;2022-10-20T06:45:53;7.70;;;6.90;;
11222;SDS011;5668;52.012;8.724;2022-10-20T06:48:22;8.47;;;7.63;;
11222;SDS011;5668;52.012;8.724;2022-10-20T06:50:49;7.83;;;7.07;;
11222;SDS011;5668;52.012;8.724;2022-10-20T06:53:21;10.03;;;7.70;;
11222;SDS011;5668;52.012;8.724;2022-10-20T06:55:54;7.67;;;6.87;;
11222;SDS011;5668;52.012;8.724;2022-10-20T06:58:22;9.57;;;7.70;;
11222;SDS011;5668;52.012;8.724;2022-10-20T07:00:56;8.37;;;7.23;;
11222;SDS011;5668;52.012;8.724;2022-10-20T07:03:26;7.90;;;6.97;;
11222;SDS011;5668;52.012;8.724;2022-10-20T07:05:53;9.03;;;6.90;;
11222;SDS011;5668;52.012;8.724;2022-10-20T07:08:21;11.10;;;7.23;;
11222;SDS011;5668;52.012;8.724;2022-10-20T07:10:56;8.83;;;7.93;;
11222;SDS011;5668;52.012;8.724;2022-10-20T07:13:25;8.30;;;7.13;;
11222;SDS011;5668;52.012;8.724;2022-10-20T07:15:53;9.63;;;7.20;;
11222;SDS011;5668;52.012;8.724;2022-10-20T07:18:21;8.00;;;7.30;;
11222;SDS011;5668;52.012;8.724;2022-10-20T07:20:50;7.97;;;6.93;;
11222;SDS011;5668;52.012;8.724;2022-10-20T07:23:20;9.40;;;8.00;;
11222;SDS011;5668;52.012;8.724;2022-10-20T07:25:47;8.07;;;7.27;;
11222;SDS011;5668;52.012;8.724;2022-10-20T07:28:14;8.53;;;7.40;;
11222;SDS011;5668;52.012;8.724;2022-10-20T07:30:41;8.60;;;7.47;;
11222;SDS011;5668;52.012;8.724;2022-10-20T07:33:09;8.60;;;7.80;;
11222;SDS011;5668;52.012;8.724;2022-10-20T07:35:36;9.57;;;6.53;;
11222;SDS011;5668;52.012;8.724;2022-10-20T07:38:04;8.90;;;7.53;;
11222;SDS011;5668;52.012;8.724;2022-10-20T07:40:31;7.80;;;7.03;;
11222;SDS011;5668;52.012;8.724;2022-10-20T07:42:58;8.67;;;7.77;;
11222;SDS011;5668;52.012;8.724;2022-10-20T07:45:25;9.67;;;7.60;;
11222;SDS011;5668;52.012;8.724;2022-10-20T07:47:53;8.60;;;7.80;;
11222;SDS011;5668;52.012;8.724;2022-10-20T07:50:20;8.17;;;7.37;;
11222;SDS011;5668;52.012;8.724;2022-10-20T07:52:49;8.23;;;7.43;;
11222;SDS011;5668;52.012;8.724;2022-10-20T07:55:18;8.63;;;7.73;;
11222;SDS011;5668;52.012;8.724;2022-10-20T07:57:46;9.70;;;7.63;;
11222;SDS011;5668;52.012;8.724;2022-10-20T08:00:13;7.57;;;6.97;;
11222;SDS011;5668;52.012;8.724;2022-10-20T08:02:41;8.40;;;7.37;;
11222;SDS011;5668;52.012;8.724;2022-10-20T08:05:09;9.43;;;8.07;;
11222;SDS011;5668;52.012;8.724;2022-10-20T08:07:37;8.23;;;7.43;;
11222;SDS011;5668;52.012;8.724;2022-10-20T08:10:05;8.80;;;7.97;;
11222;SDS011;5668;52.012;8.724;2022-10-20T08:12:38;8.07;;;7.33;;
11222;SDS011;5668;52.012;8.724;2022-10-20T08:15:05;9.03;;;8.13;;
11222;SDS011;5668;52.012;8.724;2022-10-20T08:17:33;8.27;;;7.37;;
11222;SDS011;5668;52.012;8.724;2022-10-20T08:20:00;8.47;;;7.57;;
11222;SDS011;5668;52.012;8.724;2022-10-20T08:22:28;10.00;;;8.17;;
11222;SDS011;5668;52.012;8.724;2022-10-20T08:24:55;8.33;;;7.60;;
11222;SDS011;5668;52.012;8.724;2022-10-20T08:27:22;8.67;;;7.87;;
11222;SDS011;5668;52.012;8.724;2022-10-20T08:29:51;9.73;;;8.82;;
11222;SDS011;5668;52.012;8.724;2022-10-20T08:32:18;10.47;;;8.57;;
11222;SDS011;5668;52.012;8.724;2022-10-20T08:34:45;8.50;;;7.70;;
11222;SDS011;5668;52.012;8.724;2022-10-20T08:37:12;10.70;;;8.53;;
11222;SDS011;5668;52.012;8.724;2022-10-20T08:39:39;8.93;;;8.07;;
11222;SDS011;5668;52.012;8.724;2022-10-20T08:42:07;8.60;;;7.80;;
11222;SDS011;5668;52.012;8.724;2022-10-20T08:44:35;10.40;;;8.00;;
11222;SDS011;5668;52.012;8.724;2022-10-20T08:47:12;9.40;;;8.40;;
11222;SDS011;5668;52.012;8.724;2022-10-20T08:49:46;10.40;;;8.70;;
11222;SDS011;5668;52.012;8.724;2022-10-20T08:52:13;9.67;;;8.67;;
11222;SDS011;5668;52.012;8.724;2022-10-20T08:54:41;10.87;;;8.37;;
11222;SDS011;5668;52.012;8.724;2022-10-20T08:57:13;10.27;;;8.40;;
11222;SDS011;5668;52.012;8.724;2022-10-20T08:59:48;9.13;;;8.20;;
11222;SDS011;5668;52.012;8.724;2022-10-20T09:02:19;9.53;;;8.70;;
11222;SDS011;5668;52.012;8.724;2022-10-20T09:04:47;9.00;;;8.20;;
11222;SDS011;5668;52.012;8.724;2022-10-20T09:07:20;10.33;;;8.30;;
11222;SDS011;5668;52.012;8.724;2022-10-20T09:09:50;11.47;;;8.87;;
11222;SDS011;5668;52.012;8.724;2022-10-20T09:12:19;9.27;;;8.37;;
11222;SDS011;5668;52.012;8.724;2022-10-20T09:14:47;9.50;;;8.37;;
11222;SDS011;5668;52.012;8.724;2022-10-20T09:17:15;9.20;;;8.40;;
11222;SDS011;5668;52.012;8.724;2022-10-20T09:19:45;10.27;;;9.10;;
11222;SDS011;5668;52.012;8.724;2022-10-20T09:22:24;10.23;;;8.10;;
11222;SDS011;5668;52.012;8.724;2022-10-20T09:24:54;9.13;;;8.33;;
11222;SDS011;5668;52.012;8.724;2022-10-20T09:27:23;9.50;;;8.50;;
11222;SDS011;5668;52.012;8.724;2022-10-20T09:29:56;9.07;;;8.17;;
11222;SDS011;5668;52.012;8.724;2022-10-20T09:32:39;9.07;;;8.27;;
11222;SDS011;5668;52.012;8.724;2022-10-20T09:35:10;10.37;;;8.37;;
11222;SDS011;5668;52.012;8.724;2022-10-20T09:37:43;8.90;;;8.10;;
11222;SDS011;5668;52.012;8.724;2022-10-20T09:40:17;8.97;;;8.13;;
11222;SDS011;5668;52.012;8.724;2022-10-20T09:42:47;10.97;;;8.57;;
11222;SDS011;5668;52.012;8.724;2022-10-20T09:45:18;11.73;;;8.40;;
11222;SDS011;5668;52.012;8.724;2022-10-20T09:47:49;9.60;;;8.10;;
11222;SDS011;5668;52.012;8.724;2022-10-20T09:50:19;8.97;;;8.00;;
11222;SDS011;5668;52.012;8.724;2022-10-20T09:52:52;10.60;;;8.40;;
11222;SDS011;5668;52.012;8.724;2022-10-20T09:55:25;9.57;;;8.00;;
11222;SDS011;5668;52.012;8.724;2022-10-20T09:57:54;7.40;;;6.80;;
11222;SDS011;5668;52.012;8.724;2022-10-20T10:00:25;8.47;;;7.57;;
11222;SDS011;5668;52.012;8.724;2022-10-20T10:03:14;8.30;;;7.57;;
11222;SDS011;5668;52.012;8.724;2022-10-20T10:05:47;7.93;;;7.23;;
11222;SDS011;5668;52.012;8.724;2022-10-20T10:08:16;9.10;;;8.13;;
11222;SDS011;5668;52.012;8.724;2022-10-20T10:10:44;8.43;;;7.57;;
11222;SDS011;5668;52.012;8.724;2022-10-20T10:13:24;8.20;;;7.40;;
11222;SDS011;5668;52.012;8.724;2022-10-20T10:16:00;8.30;;;7.50;;
11222;SDS011;5668;52.012;8.724;2022-10-20T10:18:31;7.83;;;7.13;;
11222;SDS011;5668;52.012;8.724;2022-10-20T10:21:02;8.20;;;7.40;;
11222;SDS011;5668;52.012;8.724;2022-10-20T10:23:31;7.37;;;6.67;;
11222;SDS011;5668;52.012;8.724;2022-10-20T10:26:00;7.47;;;6.80;;
11222;SDS011;5668;52.012;8.724;2022-10-20T10:28:35;6.97;;;6.27;;
11222;SDS011;5668;52.012;8.724;2022-10-20T10:31:05;7.43;;;6.73;;
11222;SDS011;5668;52.012;8.724;2022-10-20T10:33:45;8.27;;;7.47;;
11222;SDS011;5668;52.012;8.724;2022-10-20T10:36:15;6.73;;;6.00;;
11222;SDS011;5668;52.012;8.724;2022-10-20T10:38:50;7.10;;;6.40;;
11222;SDS011;5668;52.012;8.724;2022-10-20T10:41:19;7.73;;;6.50;;
11222;SDS011;5668;52.012;8.724;2022-10-20T10:43:54;6.97;;;6.27;;
11222;SDS011;5668;52.012;8.724;2022-10-20T10:46:30;6.90;;;6.20;;
11222;SDS011;5668;52.012;8.724;2022-10-20T10:49:10;8.53;;;6.43;;
11222;SDS011;5668;52.012;8.724;2022-10-20T10:52:09;6.77;;;5.97;;
11222;SDS011;5668;52.012;8.724;2022-10-20T10:54:55;7.53;;;6.23;;
11222;SDS011;5668;52.012;8.724;2022-10-20T10:57:29;8.70;;;6.30;;
11222;SDS011;5668;52.012;8.724;2022-10-20T11:00:02;7.10;;;5.87;;
11222;SDS011;5668;52.012;8.724;2022-10-20T11:02:41;6.93;;;5.90;;
11222;SDS011;5668;52.012;8.724;2022-10-20T11:05:38;6.00;;;5.40;;
11222;SDS011;5668;52.012;8.724;2022-10-20T11:08:19;5.57;;;5.07;;
11222;SDS011;5668;52.012;8.724;2022-10-20T11:10:53;5.30;;;4.90;;
11222;SDS011;5668;52.012;8.724;2022-10-20T11:13:33;5.63;;;5.07;;
11222;SDS011;5668;52.012;8.724;2022-10-20T11:16:12;5.30;;;4.80;;
11222;SDS011;5668;52.012;8.724;2022-10-20T11:22:05;5.67;;;5.17;;
11222;SDS011;5668;52.012;8.724;2022-10-20T11:24:44;5.40;;;4.90;;
11222;SDS011;5668;52.012;8.724;2022-10-20T11:27:21;5.43;;;4.93;;
11222;SDS011;5668;52.012;8.724;2022-10-20T11:29:52;5.73;;;5.13;;
11222;SDS011;5668;52.012;8.724;2022-10-20T11:32:29;7.27;;;5.53;;
11222;SDS011;5668;52.012;8.724;2022-10-20T11:35:02;6.23;;;5.33;;
11222;SDS011;5668;52.012;8.724;2022-10-20T11:37:40;6.80;;;5.63;;
11222;SDS011;5668;52.012;8.724;2022-10-20T11:40:15;5.73;;;4.80;;
11222;SDS011;5668;52.012;8.724;2022-10-20T11:42:49;5.33;;;4.83;;
11222;SDS011;5668;52.012;8.724;2022-10-20T11:45:28;7.63;;;5.10;;
11222;SDS011;5668;52.012;8.724;2022-10-20T11:48:03;5.27;;;4.87;;
11222;SDS011;5668;52.012;8.724;2022-10-20T11:50:39;5.93;;;5.33;;
11222;SDS011;5668;52.012;8.724;2022-10-20T11:53:22;4.83;;;4.43;;
11222;SDS011;5668;52.012;8.724;2022-10-20T11:56:01;6.43;;;5.20;;
11222;SDS011;5668;52.012;8.724;2022-10-20T11:58:48;6.80;;;5.03;;
11222;SDS011;5668;52.012;8.724;2022-10-20T12:01:39;6.60;;;4.93;;
11222;SDS011;5668;52.012;8.724;2022-10-20T12:04:34;8.90;;;5.03;;
11222;SDS011;5668;52.012;8.724;2022-10-20T12:07:24;5.77;;;4.80;;
11222;SDS011;5668;52.012;8.724;2022-10-20T12:10:16;6.05;;;4.90;;
11222;SDS011;5668;52.012;8.724;2022-10-20T12:13:00;5.20;;;4.70;;
11222;SDS011;5668;52.012;8.724;2022-10-20T12:15:43;4.97;;;4.47;;
11222;SDS011;5668;52.012;8.724;2022-10-20T12:18:17;6.13;;;5.47;;
11222;SDS011;5668;52.012;8.724;2022-10-20T12:20:51;5.30;;;4.80;;
11222;SDS011;5668;52.012;8.724;2022-10-20T12:26:35;6.17;;;4.80;;
11222;SDS011;5668;52.012;8.724;2022-10-20T12:32:24;4.97;;;4.57;;
11222;SDS011;5668;52.012;8.724;2022-10-20T12:38:18;7.90;;;5.20;;
11222;SDS011;5668;52.012;8.724;2022-10-20T12:40:50;5.17;;;4.63;;
11222;SDS011;5668;52.012;8.724;2022-10-20T12:43:24;4.65;;;4.25;;
11222;SDS011;5668;52.012;8.724;2022-10-20T12:45:55;5.03;;;4.53;;
11222;SDS011;5668;52.012;8.724;2022-10-20T12:48:24;5.03;;;4.63;;
11222;SDS011;5668;52.012;8.724;2022-10-20T12:50:52;5.18;;;4.68;;
11222;SDS011;5668;52.012;8.724;2022-10-20T12:53:27;5.55;;;4.93;;
11222;SDS011;5668;52.012;8.724;2022-10-20T12:55:56;5.78;;;4.45;;
11222;SDS011;5668;52.012;8.724;2022-10-20T12:58:28;6.53;;;5.20;;
11222;SDS011;5668;52.012;8.724;2022-10-20T13:01:07;7.03;;;4.83;;
11222;SDS011;5668;52.012;8.724;2022-10-20T13:03:40;6.43;;;4.77;;
11222;SDS011;5668;52.012;8.724;2022-10-20T13:09:16;5.13;;;4.63;;
11222;SDS011;5668;52.012;8.724;2022-10-20T13:11:53;5.15;;;4.63;;
11222;SDS011;5668;52.012;8.724;2022-10-20T13:14:44;6.15;;;5.18;;
11222;SDS011;5668;52.012;8.724;2022-10-20T13:20:19;4.88;;;4.38;;
11222;SDS011;5668;52.012;8.724;2022-10-20T13:22:52;8.10;;;7.40;;
11222;SDS011;5668;52.012;8.724;2022-10-20T13:25:30;28.13;;;25.40;;
11222;SDS011;5668;52.012;8.724;2022-10-20T13:28:01;19.23;;;17.43;;
11222;SDS011;5668;52.012;8.724;2022-10-20T13:30:32;12.13;;;10.88;;
11222;SDS011;5668;52.012;8.724;2022-10-20T13:33:02;9.10;;;8.23;;
11222;SDS011;5668;52.012;8.724;2022-10-20T13:35:37;8.23;;;6.57;;
11222;SDS011;5668;52.012;8.724;2022-10-20T13:38:14;6.65;;;5.97;;
11222;SDS011;5668;52.012;8.724;2022-10-20T13:40:47;6.40;;;5.85;;
11222;SDS011;5668;52.012;8.724;2022-10-20T13:43:26;6.30;;;5.57;;
11222;SDS011;5668;52.012;8.724;2022-10-20T13:46:05;7.47;;;6.23;;
11222;SDS011;5668;52.012;8.724;2022-10-20T13:48:49;6.40;;;5.73;;
11222;SDS011;5668;52.012;8.724;2022-10-20T13:51:42;6.40;;;5.63;;
11222;SDS011;5668;52.012;8.724;2022-10-20T13:54:14;6.33;;;5.73;;
11222;SDS011;5668;52.012;8.724;2022-10-20T13:56:50;6.17;;;5.57;;
11222;SDS011;5668;52.012;8.724;2022-10-20T13:59:19;9.67;;;5.57;;
11222;SDS011;5668;52.012;8.724;2022-10-20T14:01:50;8.97;;;5.40;;
11222;SDS011;5668;52.012;8.724;2022-10-20T14:04:23;6.57;;;5.97;;
11222;SDS011;5668;52.012;8.724;2022-10-20T14:06:52;6.20;;;5.63;;
11222;SDS011;5668;52.012;8.724;2022-10-20T14:09:20;7.00;;;5.67;;
11222;SDS011;5668;52.012;8.724;2022-10-20T14:11:49;7.43;;;5.73;;
11222;SDS011;5668;52.012;8.724;2022-10-20T14:14:20;5.73;;;5.23;;
11222;SDS011;5668;52.012;8.724;2022-10-20T14:16:51;7.03;;;5.63;;
11222;SDS011;5668;52.012;8.724;2022-10-20T14:19:21;6.73;;;6.03;;
11222;SDS011;5668;52.012;8.724;2022-10-20T14:21:51;7.20;;;6.50;;
11222;SDS011;5668;52.012;8.724;2022-10-20T14:24:23;8.10;;;6.43;;
11222;SDS011;5668;52.012;8.724;2022-10-20T14:26:54;7.40;;;6.30;;
11222;SDS011;5668;52.012;8.724;2022-10-20T14:29:23;9.70;;;6.33;;
11222;SDS011;5668;52.012;8.724;2022-10-20T14:31:54;7.33;;;6.70;;
11222;SDS011;5668;52.012;8.724;2022-10-20T14:34:22;7.97;;;7.10;;
11222;SDS011;5668;52.012;8.724;2022-10-20T14:36:52;7.13;;;6.53;;
11222;SDS011;5668;52.012;8.724;2022-10-20T14:39:23;7.33;;;6.30;;
11222;SDS011;5668;52.012;8.724;2022-10-20T14:41:57;7.33;;;5.97;;
11222;SDS011;5668;52.012;8.724;2022-10-20T14:44:26;6.60;;;6.00;;
11222;SDS011;5668;52.012;8.724;2022-10-20T14:46:55;7.20;;;6.50;;
11222;SDS011;5668;52.012;8.724;2022-10-20T14:49:29;7.90;;;6.07;;
11222;SDS011;5668;52.012;8.724;2022-10-20T14:52:00;7.30;;;6.60;;
11222;SDS011;5668;52.012;8.724;2022-10-20T14:54:32;6.80;;;6.10;;
11222;SDS011;5668;52.012;8.724;2022-10-20T14:57:01;7.93;;;5.70;;
11222;SDS011;5668;52.012;8.724;2022-10-20T15:00:26;8.37;;;6.20;;
11222;SDS011;5668;52.012;8.724;2022-10-20T15:02:57;8.20;;;6.30;;
11222;SDS011;5668;52.012;8.724;2022-10-20T15:05:31;13.30;;;10.80;;
11222;SDS011;5668;52.012;8.724;2022-10-20T15:08:05;9.03;;;7.43;;
11222;SDS011;5668;52.012;8.724;2022-10-20T15:10:35;7.73;;;6.93;;
11222;SDS011;5668;52.012;8.724;2022-10-20T15:13:04;7.20;;;6.50;;
11222;SDS011;5668;52.012;8.724;2022-10-20T15:15:36;7.43;;;6.73;;
11222;SDS011;5668;52.012;8.724;2022-10-20T15:18:08;7.40;;;6.63;;
11222;SDS011;5668;52.012;8.724;2022-10-20T15:20:39;7.37;;;6.57;;
11222;SDS011;5668;52.012;8.724;2022-10-20T15:23:08;7.47;;;6.37;;
11222;SDS011;5668;52.012;8.724;2022-10-20T15:25:39;7.20;;;6.50;;
11222;SDS011;5668;52.012;8.724;2022-10-20T15:28:21;8.47;;;6.80;;
11222;SDS011;5668;52.012;8.724;2022-10-20T15:30:56;8.33;;;6.67;;
11222;SDS011;5668;52.012;8.724;2022-10-20T15:33:24;9.90;;;6.80;;
11222;SDS011;5668;52.012;8.724;2022-10-20T15:35:52;8.80;;;7.00;;
11222;SDS011;5668;52.012;8.724;2022-10-20T15:38:19;8.07;;;7.20;;
11222;SDS011;5668;52.012;8.724;2022-10-20T15:40:47;8.20;;;7.40;;
11222;SDS011;5668;52.012;8.724;2022-10-20T15:43:14;8.83;;;7.93;;
11222;SDS011;5668;52.012;8.724;2022-10-20T15:45:43;8.97;;;7.70;;
11222;SDS011;5668;52.012;8.724;2022-10-20T15:48:13;10.37;;;8.47;;